Time;durP1;ratioP1;P1;durP2;ratioP2;P2;SDS_P1;SDS_P2;PMS_P1;PMS_P2;Temp;Humidity;BMP_temperature;BMP_pressure;BME280_temperature;BME280_humidity;BME280_pressure;Samples;Min_cycle;Max_cycle;Signal;HPM_P1;HPM_P2
2024/01/10 00:01:48;;;;;;;1.40;0.73;;;;;;;;;;4951282;28;20039;-82
2024/01/10 00:04:16;;;;;;;0.20;0.10;;;;;;;;;;4970168;28;20042;-83
2024/01/10 00:06:42;;;;;;;0.20;0.10;;;;;;;;;;4949264;28;20061;-84
2024/01/10 00:09:08;;;;;;;0.20;0.10;;;;;;;;;;4939595;28;20189;-83
2024/01/10 00:11:35;;;;;;;0.20;0.10;;;;;;;;;;4942524;28;20050;-83
2024/01/10 00:14:03;;;;;;;0.85;0.85;;;;;;;;;;4962737;28;20055;-83
2024/01/10 00:16:32;;;;;;;0.20;0.10;;;;;;;;;;4942785;28;20049;-80
2024/01/10 00:18:58;;;;;;;0.20;0.10;;;;;;;;;;4957309;28;20476;-83
2024/01/10 00:21:24;;;;;;;0.20;0.10;;;;;;;;;;4940107;28;20041;-82
2024/01/10 00:23:50;;;;;;;0.20;0.10;;;;;;;;;;4944938;28;20496;-82
2024/01/10 00:26:16;;;;;;;0.20;0.00;;;;;;;;;;4939569;28;20039;-83
2024/01/10 00:28:44;;;;;;;0.20;0.10;;;;;;;;;;4947855;28;20129;-83
2024/01/10 00:31:10;;;;;;;0.20;0.10;;;;;;;;;;4942779;28;20046;-83
2024/01/10 00:33:36;;;;;;;0.32;0.30;;;;;;;;;;4971551;28;20047;-83
2024/01/10 00:36:02;;;;;;;0.20;0.10;;;;;;;;;;4960684;28;20159;-82
2024/01/10 00:38:28;;;;;;;0.20;0.10;;;;;;;;;;4941458;28;20043;-83
2024/01/10 00:40:56;;;;;;;0.20;0.10;;;;;;;;;;4941735;28;20081;-82
2024/01/10 00:43:22;;;;;;;0.45;0.30;;;;;;;;;;4964747;28;20046;-83
2024/01/10 00:45:48;;;;;;;0.20;0.10;;;;;;;;;;4961392;28;20043;-83
2024/01/10 00:48:14;;;;;;;0.20;0.10;;;;;;;;;;4946085;28;20075;-82
2024/01/10 00:50:40;;;;;;;0.20;0.10;;;;;;;;;;4946008;28;20463;-83
2024/01/10 00:53:06;;;;;;;0.85;0.30;;;;;;;;;;4939710;28;20100;-83
2024/01/10 00:55:32;;;;;;;0.20;0.10;;;;;;;;;;4962746;28;20047;-82
2024/01/10 00:57:58;;;;;;;0.20;0.20;;;;;;;;;;4944284;28;20050;-83
2024/01/10 01:00:24;;;;;;;0.20;0.10;;;;;;;;;;4944005;28;20122;-82
2024/01/10 01:02:50;;;;;;;0.20;0.10;;;;;;;;;;4963329;28;20059;-82
2024/01/10 01:05:16;;;;;;;0.20;0.10;;;;;;;;;;4964460;28;20039;-83
2024/01/10 01:07:43;;;;;;;0.20;0.10;;;;;;;;;;4964364;28;20039;-84
2024/01/10 01:10:09;;;;;;;0.20;0.10;;;;;;;;;;4948551;28;20047;-82
2024/01/10 01:12:35;;;;;;;0.20;0.10;;;;;;;;;;4964449;28;20516;-82
2024/01/10 01:15:01;;;;;;;0.20;0.10;;;;;;;;;;4955249;28;20050;-83
2024/01/10 01:17:27;;;;;;;0.20;0.00;;;;;;;;;;4973068;28;20170;-83
2024/01/10 01:19:53;;;;;;;0.20;0.10;;;;;;;;;;4954440;28;20078;-83
2024/01/10 01:22:19;;;;;;;0.20;0.10;;;;;;;;;;4957284;28;20101;-83
2024/01/10 01:24:45;;;;;;;0.20;0.20;;;;;;;;;;4951950;28;20050;-82
2024/01/10 01:27:11;;;;;;;0.20;0.10;;;;;;;;;;4953729;28;20499;-83
2024/01/10 01:29:37;;;;;;;0.20;0.10;;;;;;;;;;4975697;28;20043;-81
2024/01/10 01:32:03;;;;;;;0.20;0.10;;;;;;;;;;4950384;28;20066;-82
2024/01/10 01:34:29;;;;;;;0.52;0.40;;;;;;;;;;4954437;28;20043;-81
2024/01/10 01:36:55;;;;;;;0.20;0.10;;;;;;;;;;4949792;28;20055;-81
2024/01/10 01:39:21;;;;;;;0.20;0.10;;;;;;;;;;4955806;28;20118;-81
2024/01/10 01:41:48;;;;;;;0.20;0.10;;;;;;;;;;4952895;28;20046;-82
2024/01/10 01:44:14;;;;;;;0.20;0.10;;;;;;;;;;4962920;28;20122;-81
2024/01/10 01:46:40;;;;;;;0.20;0.00;;;;;;;;;;4951537;28;21171;-81
2024/01/10 01:49:07;;;;;;;0.20;0.20;;;;;;;;;;4951797;28;20076;-83
2024/01/10 01:51:33;;;;;;;0.20;0.10;;;;;;;;;;4953639;28;20043;-83
2024/01/10 01:54:00;;;;;;;0.20;0.10;;;;;;;;;;4946784;28;20280;-82
2024/01/10 01:56:26;;;;;;;0.20;0.10;;;;;;;;;;4973857;28;20283;-83
2024/01/10 01:58:52;;;;;;;0.20;0.10;;;;;;;;;;4964670;28;20039;-83
2024/01/10 02:01:21;;;;;;;0.20;0.10;;;;;;;;;;4950933;28;20039;-83
2024/01/10 02:03:47;;;;;;;0.20;0.10;;;;;;;;;;4969088;28;20034;-82
2024/01/10 02:06:13;;;;;;;0.20;0.15;;;;;;;;;;4949686;28;20415;-83
2024/01/10 02:08:40;;;;;;;0.20;0.10;;;;;;;;;;4951648;28;20042;-82
2024/01/10 02:11:06;;;;;;;0.20;0.10;;;;;;;;;;4947902;28;20047;-83
2024/01/10 02:13:32;;;;;;;0.20;0.10;;;;;;;;;;4967176;28;20161;-82
2024/01/10 02:15:59;;;;;;;0.20;0.10;;;;;;;;;;4965081;28;20027;-82
2024/01/10 02:18:25;;;;;;;0.20;0.10;;;;;;;;;;4949981;28;20570;-81
2024/01/10 02:20:52;;;;;;;0.20;0.20;;;;;;;;;;4943021;28;20042;-82
2024/01/10 02:23:18;;;;;;;0.22;0.22;;;;;;;;;;4951090;28;20556;-83
2024/01/10 02:25:44;;;;;;;0.20;0.10;;;;;;;;;;4947296;28;20037;-81
2024/01/10 02:28:10;;;;;;;0.20;0.10;;;;;;;;;;4957955;28;20078;-83
2024/01/10 02:30:37;;;;;;;0.20;0.10;;;;;;;;;;4947235;28;20052;-82
2024/01/10 02:33:03;;;;;;;0.20;0.10;;;;;;;;;;4949567;28;20307;-82
2024/01/10 02:35:32;;;;;;;0.20;0.10;;;;;;;;;;4951667;28;20146;-81
2024/01/10 02:37:58;;;;;;;1.00;0.90;;;;;;;;;;4954792;28;20085;-82
2024/01/10 02:40:24;;;;;;;0.20;0.10;;;;;;;;;;4948690;28;20038;-81
2024/01/10 02:42:51;;;;;;;0.20;0.08;;;;;;;;;;4962001;28;20384;-82
2024/01/10 02:45:17;;;;;;;0.20;0.20;;;;;;;;;;4952304;28;20043;-82
2024/01/10 02:47:43;;;;;;;0.20;0.10;;;;;;;;;;4966520;28;20043;-80
2024/01/10 02:50:09;;;;;;;0.20;0.10;;;;;;;;;;4949820;28;20039;-80
2024/01/10 02:52:35;;;;;;;0.77;0.55;;;;;;;;;;4952828;28;20437;-83
2024/01/10 02:55:01;;;;;;;0.20;0.10;;;;;;;;;;4952759;28;20086;-83
2024/01/10 02:57:27;;;;;;;0.20;0.10;;;;;;;;;;4968695;28;20081;-83
2024/01/10 02:59:53;;;;;;;0.20;0.10;;;;;;;;;;4951082;28;20039;-82
2024/01/10 03:02:19;;;;;;;0.20;0.10;;;;;;;;;;4952508;28;20034;-82
2024/01/10 03:04:45;;;;;;;0.20;0.10;;;;;;;;;;4945083;28;20042;-83
2024/01/10 03:07:11;;;;;;;0.30;0.22;;;;;;;;;;4951439;28;20038;-82
2024/01/10 03:09:37;;;;;;;0.20;0.10;;;;;;;;;;4962617;28;20049;-82
2024/01/10 03:12:03;;;;;;;0.20;0.10;;;;;;;;;;4949010;28;20042;-82
2024/01/10 03:14:29;;;;;;;0.20;0.10;;;;;;;;;;4948621;28;20039;-82
2024/01/10 03:34:42;;;;;;;;;;;;;;;;;;;;;
2024/01/10 03:51:27;;;;;;;0.20;0.10;;;;;;;;;;4978243;28;20053;-89
2024/01/10 04:47:52;;;;;;;0.20;0.10;;;;;;;;;;1372444;22;20299;-84
2024/01/10 04:50:55;;;;;;;;;;;;;;;;;;;;;
2024/01/10 04:57:18;;;;;;;1.08;1.08;;;;;;;;;;4957424;28;20070;-89
2024/01/10 05:03:07;;;;;;;0.20;0.10;;;;;;;;;;4950951;23;20124;-84
2024/01/10 05:05:33;;;;;;;0.30;0.15;;;;;;;;;;4948460;28;20039;-83
2024/01/10 05:08:01;;;;;;;0.20;0.10;;;;;;;;;;4954787;28;20070;-82
2024/01/10 05:10:27;;;;;;;0.20;0.17;;;;;;;;;;4934284;28;20042;-83
2024/01/10 05:12:52;;;;;;;0.20;0.10;;;;;;;;;;4952452;28;20324;-83
2024/01/10 05:15:19;;;;;;;0.20;0.10;;;;;;;;;;4931293;28;20046;-83
2024/01/10 05:17:45;;;;;;;0.63;0.43;;;;;;;;;;4947129;28;20109;-83
2024/01/10 05:20:11;;;;;;;0.20;0.10;;;;;;;;;;4933274;28;20450;-83
2024/01/10 05:22:37;;;;;;;0.20;0.10;;;;;;;;;;4954675;28;20043;-83
2024/01/10 05:25:04;;;;;;;0.20;0.10;;;;;;;;;;4934913;28;20509;-82
2024/01/10 05:27:30;;;;;;;0.20;0.10;;;;;;;;;;4951640;28;20244;-83
2024/01/10 05:29:56;;;;;;;0.20;0.10;;;;;;;;;;4962986;28;21300;-82
2024/01/10 05:32:22;;;;;;;0.30;0.20;;;;;;;;;;4964311;28;20039;-83
2024/01/10 05:34:49;;;;;;;0.20;0.20;;;;;;;;;;4961262;28;21387;-81
2024/01/10 05:37:15;;;;;;;0.20;0.10;;;;;;;;;;4946804;28;20127;-83
2024/01/10 05:39:41;;;;;;;0.20;0.10;;;;;;;;;;4956340;28;20034;-83
2024/01/10 05:42:07;;;;;;;0.20;0.20;;;;;;;;;;4957849;28;20054;-82
2024/01/10 05:44:33;;;;;;;0.30;0.30;;;;;;;;;;4945183;28;20066;-81
2024/01/10 05:46:59;;;;;;;0.20;0.10;;;;;;;;;;4960582;28;20483;-82
2024/01/10 05:49:25;;;;;;;0.20;0.10;;;;;;;;;;4940576;28;20098;-82
2024/01/10 05:51:52;;;;;;;1.05;0.90;;;;;;;;;;4962244;28;20039;-84
2024/01/10 05:54:18;;;;;;;0.20;0.10;;;;;;;;;;4940178;28;20039;-83
2024/01/10 05:56:44;;;;;;;0.20;0.10;;;;;;;;;;4957927;28;20205;-82
2024/01/10 05:59:11;;;;;;;0.20;0.10;;;;;;;;;;4949317;28;20066;-82
2024/01/10 06:01:38;;;;;;;0.20;0.10;;;;;;;;;;4950578;28;20554;-83
2024/01/10 06:04:05;;;;;;;0.30;0.20;;;;;;;;;;4942520;28;20069;-81
2024/01/10 06:06:32;;;;;;;0.20;0.10;;;;;;;;;;4955551;28;20043;-83
2024/01/10 06:08:58;;;;;;;0.30;0.30;;;;;;;;;;4958242;28;20514;-82
2024/01/10 06:11:24;;;;;;;0.20;0.10;;;;;;;;;;4957582;28;20459;-82
2024/01/10 06:13:50;;;;;;;0.20;0.10;;;;;;;;;;4954438;28;20043;-83
2024/01/10 06:16:16;;;;;;;0.20;0.10;;;;;;;;;;4950253;28;20105;-83
2024/01/10 06:18:42;;;;;;;0.20;0.10;;;;;;;;;;4953745;28;20563;-83
2024/01/10 06:21:08;;;;;;;0.20;0.10;;;;;;;;;;4937347;28;20090;-83
2024/01/10 06:23:34;;;;;;;0.20;0.13;;;;;;;;;;4956593;28;20058;-83
2024/01/10 06:26:00;;;;;;;0.73;0.38;;;;;;;;;;4946225;28;20101;-82
2024/01/10 06:28:26;;;;;;;0.20;0.13;;;;;;;;;;4932233;28;20626;-83
2024/01/10 06:30:52;;;;;;;0.20;0.10;;;;;;;;;;4957248;28;20035;-84
2024/01/10 06:33:19;;;;;;;0.20;0.10;;;;;;;;;;4954713;28;20074;-83
2024/01/10 06:35:46;;;;;;;0.20;0.10;;;;;;;;;;4955454;28;20522;-82
2024/01/10 06:38:12;;;;;;;0.20;0.10;;;;;;;;;;4956083;28;20043;-83
2024/01/10 06:40:38;;;;;;;0.20;0.10;;;;;;;;;;4955111;28;20626;-83
2024/01/10 06:43:04;;;;;;;0.20;0.10;;;;;;;;;;4950632;28;20665;-82
2024/01/10 06:45:30;;;;;;;0.63;0.30;;;;;;;;;;4955132;28;20586;-82
2024/01/10 06:47:56;;;;;;;0.30;0.30;;;;;;;;;;4954522;28;20586;-83
2024/01/10 06:50:23;;;;;;;0.30;0.22;;;;;;;;;;4955642;28;20552;-82
2024/01/10 06:52:49;;;;;;;0.52;0.52;;;;;;;;;;4949991;28;20042;-82
2024/01/10 06:55:15;;;;;;;0.20;0.13;;;;;;;;;;4946347;28;20447;-83
2024/01/10 06:57:41;;;;;;;0.20;0.10;;;;;;;;;;4953946;28;20043;-83
2024/01/10 07:00:10;;;;;;;0.20;0.10;;;;;;;;;;4950076;28;20031;-82
2024/01/10 07:02:37;;;;;;;0.20;0.10;;;;;;;;;;4936644;28;20128;-82
2024/01/10 07:05:05;;;;;;;0.20;0.10;;;;;;;;;;4937479;28;20038;-82
2024/01/10 07:07:31;;;;;;;0.20;0.10;;;;;;;;;;4952319;28;20066;-83
2024/01/10 07:09:57;;;;;;;0.20;0.10;;;;;;;;;;4954445;28;20041;-82
2024/01/10 07:12:23;;;;;;;0.20;0.10;;;;;;;;;;4938738;28;20117;-82
2024/01/10 07:14:50;;;;;;;0.20;0.10;;;;;;;;;;4952471;28;20049;-82
2024/01/10 07:17:16;;;;;;;0.20;0.10;;;;;;;;;;4955255;28;20046;-81
2024/01/10 07:19:42;;;;;;;0.20;0.10;;;;;;;;;;4946545;28;20139;-82
2024/01/10 07:22:10;;;;;;;0.90;0.90;;;;;;;;;;4934464;28;20176;-83
2024/01/10 07:24:36;;;;;;;0.20;0.10;;;;;;;;;;4953743;28;20046;-82
2024/01/10 07:27:02;;;;;;;0.22;0.13;;;;;;;;;;4940276;28;20455;-83
2024/01/10 07:29:28;;;;;;;0.30;0.20;;;;;;;;;;4958785;28;20074;-83
2024/01/10 07:31:54;;;;;;;0.20;0.20;;;;;;;;;;4955295;28;20087;-83
2024/01/10 07:34:21;;;;;;;0.20;0.10;;;;;;;;;;4937835;28;20168;-82
2024/01/10 07:36:47;;;;;;;0.20;0.10;;;;;;;;;;4936818;28;20050;-83
2024/01/10 07:39:15;;;;;;;0.20;0.10;;;;;;;;;;4935707;28;20094;-82
2024/01/10 07:41:42;;;;;;;0.20;0.10;;;;;;;;;;4936613;28;20050;-82
2024/01/10 07:44:09;;;;;;;0.20;0.10;;;;;;;;;;4939134;28;20076;-82
2024/01/10 07:46:37;;;;;;;0.20;0.10;;;;;;;;;;4948687;28;20397;-82
2024/01/10 07:49:04;;;;;;;0.20;0.10;;;;;;;;;;4953227;28;20046;-81
2024/01/10 07:51:30;;;;;;;0.20;0.10;;;;;;;;;;4953617;28;20133;-82
2024/01/10 07:53:57;;;;;;;0.20;0.10;;;;;;;;;;4952919;28;20039;-82
2024/01/10 07:56:25;;;;;;;0.20;0.10;;;;;;;;;;4935487;28;20051;-82
2024/01/10 07:58:51;;;;;;;0.20;0.10;;;;;;;;;;4951729;28;20558;-82
2024/01/10 08:01:18;;;;;;;0.95;0.95;;;;;;;;;;4949131;28;20098;-82
2024/01/10 08:03:44;;;;;;;0.20;0.10;;;;;;;;;;4950431;28;20050;-82
2024/01/10 08:06:13;;;;;;;0.47;0.47;;;;;;;;;;4950415;28;20519;-83
2024/01/10 08:08:39;;;;;;;0.20;0.10;;;;;;;;;;4963041;28;20066;-83
2024/01/10 08:11:05;;;;;;;0.20;0.10;;;;;;;;;;4953984;28;20066;-82
2024/01/10 08:13:31;;;;;;;0.20;0.10;;;;;;;;;;4933765;28;20415;-82
2024/01/10 08:15:58;;;;;;;0.20;0.10;;;;;;;;;;4952415;28;20038;-81
2024/01/10 08:18:24;;;;;;;0.20;0.10;;;;;;;;;;4938482;28;20430;-82
2024/01/10 08:20:50;;;;;;;0.20;0.20;;;;;;;;;;4948939;28;20096;-82
2024/01/10 08:23:16;;;;;;;0.20;0.10;;;;;;;;;;4936509;28;20051;-82
2024/01/10 08:25:43;;;;;;;0.20;0.03;;;;;;;;;;4936285;28;20410;-82
2024/01/10 08:28:10;;;;;;;0.20;0.10;;;;;;;;;;4933967;28;20054;-83
2024/01/10 08:30:36;;;;;;;0.20;0.10;;;;;;;;;;4950298;28;20049;-81
2024/01/10 08:33:04;;;;;;;0.20;0.10;;;;;;;;;;4952654;28;20050;-82
2024/01/10 08:35:30;;;;;;;0.20;0.10;;;;;;;;;;4935643;28;20039;-82
2024/01/10 08:37:56;;;;;;;1.17;0.75;;;;;;;;;;4937630;28;20465;-84
2024/01/10 08:40:25;;;;;;;0.20;0.10;;;;;;;;;;4953569;28;20034;-82
2024/01/10 08:42:51;;;;;;;0.20;0.10;;;;;;;;;;4951216;28;20042;-82
2024/01/10 08:45:18;;;;;;;0.20;0.10;;;;;;;;;;4952212;28;20113;-82
2024/01/10 08:47:44;;;;;;;0.20;0.10;;;;;;;;;;4951793;28;20035;-82
2024/01/10 08:50:10;;;;;;;0.20;0.10;;;;;;;;;;4952571;28;20081;-82
2024/01/10 08:52:37;;;;;;;0.20;0.10;;;;;;;;;;4949666;28;20289;-82
2024/01/10 08:55:04;;;;;;;0.20;0.10;;;;;;;;;;4937853;28;20042;-82
2024/01/10 08:57:30;;;;;;;0.20;0.10;;;;;;;;;;4937413;28;20429;-82
2024/01/10 08:59:56;;;;;;;0.20;0.10;;;;;;;;;;4954554;28;20042;-82
2024/01/10 09:02:23;;;;;;;0.20;0.10;;;;;;;;;;4950805;28;20125;-81
2024/01/10 09:04:49;;;;;;;0.65;0.43;;;;;;;;;;4954571;28;20399;-82
2024/01/10 09:07:17;;;;;;;0.20;0.10;;;;;;;;;;4958339;28;20046;-82
2024/01/10 09:09:43;;;;;;;0.20;0.10;;;;;;;;;;4939223;28;20049;-84
2024/01/10 09:12:09;;;;;;;3.60;3.40;;;;;;;;;;4939954;28;20213;-82
2024/01/10 09:14:35;;;;;;;0.20;0.10;;;;;;;;;;4939866;28;20411;-83
2024/01/10 09:17:03;;;;;;;0.20;0.10;;;;;;;;;;4955462;28;20034;-82
2024/01/10 09:19:32;;;;;;;0.20;0.10;;;;;;;;;;4936280;28;20066;-81
2024/01/10 09:21:58;;;;;;;0.20;0.10;;;;;;;;;;4941646;28;20031;-82
2024/01/10 09:24:27;;;;;;;0.20;0.10;;;;;;;;;;4954947;28;20042;-82
2024/01/10 09:26:53;;;;;;;0.20;0.10;;;;;;;;;;4955595;28;20115;-82
2024/01/10 09:29:19;;;;;;;0.20;0.10;;;;;;;;;;4952941;28;20053;-82
2024/01/10 09:31:45;;;;;;;0.20;0.10;;;;;;;;;;4935825;28;20043;-82
2024/01/10 09:34:11;;;;;;;0.20;0.10;;;;;;;;;;4955683;28;20097;-82
2024/01/10 09:36:37;;;;;;;0.35;0.35;;;;;;;;;;4953442;28;20039;-82
2024/01/10 09:39:05;;;;;;;0.20;0.10;;;;;;;;;;4954336;28;20117;-83
2024/01/10 09:41:32;;;;;;;0.20;0.10;;;;;;;;;;4952462;28;20047;-81
2024/01/10 09:43:58;;;;;;;0.25;0.20;;;;;;;;;;4951717;28;20045;-82
2024/01/10 09:46:24;;;;;;;0.20;0.10;;;;;;;;;;4959278;28;20031;-83
2024/01/10 09:48:50;;;;;;;0.20;0.10;;;;;;;;;;4960096;28;20038;-83
2024/01/10 09:51:16;;;;;;;0.20;0.10;;;;;;;;;;4961133;28;20062;-81
2024/01/10 09:53:45;;;;;;;0.20;0.10;;;;;;;;;;4945203;28;20079;-81
2024/01/10 09:56:11;;;;;;;0.20;0.10;;;;;;;;;;4958420;28;20049;-83
2024/01/10 09:58:39;;;;;;;0.20;0.10;;;;;;;;;;4943065;28;20085;-82
2024/01/10 10:01:06;;;;;;;0.20;0.10;;;;;;;;;;4941688;28;20121;-81
2024/01/10 10:03:37;;;;;;;0.20;0.10;;;;;;;;;;4960320;28;20042;-83
2024/01/10 10:06:03;;;;;;;0.20;0.00;;;;;;;;;;4958607;28;20043;-83
2024/01/10 10:08:29;;;;;;;0.20;0.10;;;;;;;;;;4941772;28;20031;-82
2024/01/10 10:10:55;;;;;;;0.20;0.10;;;;;;;;;;4957971;28;20042;-82
2024/01/10 10:13:25;;;;;;;0.20;0.10;;;;;;;;;;4941909;28;20039;-81
2024/01/10 10:16:01;;;;;;;0.20;0.10;;;;;;;;;;4956158;28;20118;-82
2024/01/10 10:18:27;;;;;;;0.20;0.10;;;;;;;;;;4937652;28;20047;-82
2024/01/10 10:21:10;;;;;;;0.25;0.20;;;;;;;;;;4951500;28;20039;-80
2024/01/10 10:23:40;;;;;;;0.20;0.10;;;;;;;;;;4950318;28;20048;-81
2024/01/10 10:26:21;;;;;;;1.85;1.27;;;;;;;;;;4940928;28;20043;-82
2024/01/10 10:28:48;;;;;;;0.20;0.10;;;;;;;;;;4940012;28;20031;-82
2024/01/10 10:31:14;;;;;;;0.20;0.10;;;;;;;;;;4955810;28;20301;-82
2024/01/10 10:33:41;;;;;;;0.20;0.10;;;;;;;;;;4938790;28;20035;-81
2024/01/10 10:36:08;;;;;;;0.20;0.10;;;;;;;;;;4935664;28;20198;-82
2024/01/10 10:38:34;;;;;;;0.20;0.10;;;;;;;;;;4940414;28;20066;-82
2024/01/10 10:41:00;;;;;;;0.20;0.10;;;;;;;;;;4956323;28;20116;-81
2024/01/10 10:43:26;;;;;;;0.20;0.10;;;;;;;;;;4939014;28;20049;-81
2024/01/10 10:45:52;;;;;;;0.20;0.10;;;;;;;;;;4951239;28;20266;-80
2024/01/10 10:48:22;;;;;;;0.20;0.10;;;;;;;;;;4953381;28;20074;-83
2024/01/10 10:50:59;;;;;;;0.20;0.10;;;;;;;;;;4952206;28;20073;-84
2024/01/10 10:53:26;;;;;;;0.20;0.10;;;;;;;;;;4951089;28;20121;-81
2024/01/10 10:55:52;;;;;;;0.20;0.10;;;;;;;;;;4954172;28;20084;-82
2024/01/10 10:58:18;;;;;;;0.20;0.10;;;;;;;;;;4933448;28;20134;-82
2024/01/10 11:00:46;;;;;;;0.20;0.10;;;;;;;;;;4954771;28;20117;-81
2024/01/10 11:03:12;;;;;;;0.20;0.10;;;;;;;;;;4954181;28;20054;-82
2024/01/10 11:05:41;;;;;;;0.20;0.10;;;;;;;;;;4954746;28;20392;-81
2024/01/10 11:08:08;;;;;;;0.20;0.10;;;;;;;;;;4954279;28;20038;-81
2024/01/10 11:10:36;;;;;;;0.20;0.10;;;;;;;;;;4937304;28;20448;-82
2024/01/10 11:13:14;;;;;;;0.20;0.10;;;;;;;;;;4938105;28;20038;-82
2024/01/10 11:16:03;;;;;;;0.20;0.10;;;;;;;;;;4953576;28;20566;-81
2024/01/10 11:18:39;;;;;;;0.20;0.10;;;;;;;;;;4934249;28;20407;-81
2024/01/10 11:21:08;;;;;;;0.20;0.10;;;;;;;;;;4931700;28;20483;-82
2024/01/10 11:23:44;;;;;;;0.20;0.10;;;;;;;;;;4950401;28;20137;-82
2024/01/10 11:26:10;;;;;;;0.20;0.10;;;;;;;;;;4950842;28;20908;-82
2024/01/10 11:28:40;;;;;;;0.20;0.10;;;;;;;;;;4950926;28;20434;-82
2024/01/10 11:31:07;;;;;;;0.20;0.10;;;;;;;;;;4936253;28;20045;-84
2024/01/10 11:33:36;;;;;;;0.20;0.10;;;;;;;;;;4953078;28;20081;-83
2024/01/10 11:36:12;;;;;;;0.20;0.10;;;;;;;;;;4934216;28;20121;-81
2024/01/10 11:38:42;;;;;;;0.20;0.10;;;;;;;;;;4952996;28;20487;-82
2024/01/10 11:41:11;;;;;;;0.20;0.10;;;;;;;;;;4950034;28;20045;-82
2024/01/10 11:43:37;;;;;;;0.20;0.10;;;;;;;;;;4936000;28;20054;-83
2024/01/10 11:46:04;;;;;;;0.20;0.15;;;;;;;;;;4949442;28;20069;-84
2024/01/10 11:48:32;;;;;;;0.20;0.10;;;;;;;;;;4948511;28;20043;-81
2024/01/10 11:50:59;;;;;;;0.20;0.10;;;;;;;;;;4951489;28;20039;-84
2024/01/10 11:53:42;;;;;;;0.20;0.10;;;;;;;;;;4935848;28;20039;-82
2024/01/10 11:56:11;;;;;;;0.20;0.10;;;;;;;;;;4947044;28;20055;-84
2024/01/10 11:58:56;;;;;;;0.20;0.10;;;;;;;;;;4951476;28;20030;-80
2024/01/10 12:01:23;;;;;;;0.20;0.10;;;;;;;;;;4929993;28;21469;-86
2024/01/10 12:03:52;;;;;;;0.20;0.10;;;;;;;;;;4933944;28;20219;-84
2024/01/10 12:06:18;;;;;;;0.20;0.10;;;;;;;;;;4966592;28;20046;-83
2024/01/10 12:08:44;;;;;;;0.93;0.40;;;;;;;;;;4934203;28;20065;-84
2024/01/10 12:11:10;;;;;;;0.20;0.10;;;;;;;;;;4934811;28;20046;-83
2024/01/10 12:13:36;;;;;;;0.20;0.10;;;;;;;;;;4932870;28;20035;-82
2024/01/10 12:16:02;;;;;;;0.20;0.10;;;;;;;;;;4950028;28;20490;-84
2024/01/10 12:18:28;;;;;;;0.30;0.30;;;;;;;;;;4947580;28;20039;-85
2024/01/10 12:20:54;;;;;;;0.98;0.93;;;;;;;;;;4950392;28;20049;-83
2024/01/10 12:23:20;;;;;;;0.20;0.08;;;;;;;;;;4952451;28;20047;-85
2024/01/10 12:25:49;;;;;;;0.20;0.10;;;;;;;;;;4935713;28;20478;-86
2024/01/10 12:28:18;;;;;;;0.20;0.10;;;;;;;;;;4953645;28;20049;-79
2024/01/10 12:30:44;;;;;;;0.20;0.10;;;;;;;;;;4947717;28;20047;-84
2024/01/10 12:33:17;;;;;;;0.20;0.20;;;;;;;;;;4949738;28;20056;-83
2024/01/10 12:36:04;;;;;;;0.20;0.10;;;;;;;;;;4950420;28;20495;-83
2024/01/10 12:38:42;;;;;;;0.20;0.10;;;;;;;;;;4937855;28;20074;-82
2024/01/10 12:41:09;;;;;;;0.20;0.00;;;;;;;;;;4935691;28;20101;-83
2024/01/10 12:43:36;;;;;;;0.20;0.03;;;;;;;;;;4933857;28;20108;-87
2024/01/10 12:46:14;;;;;;;0.20;0.10;;;;;;;;;;4947197;28;20045;-84
2024/01/10 12:48:43;;;;;;;0.20;0.10;;;;;;;;;;4950640;28;20117;-84
2024/01/10 12:51:15;;;;;;;0.50;0.50;;;;;;;;;;4950816;28;20291;-84
2024/01/10 12:53:44;;;;;;;0.20;0.10;;;;;;;;;;4944752;28;20039;-85
2024/01/10 12:56:20;;;;;;;0.20;0.10;;;;;;;;;;4950929;28;20054;-87
2024/01/10 12:59:18;;;;;;;0.20;0.10;;;;;;;;;;4943804;28;20114;-87
2024/01/10 13:01:53;;;;;;;0.20;0.10;;;;;;;;;;4917509;28;20544;-83
2024/01/10 13:04:39;;;;;;;0.20;0.10;;;;;;;;;;4948955;28;20050;-86
2024/01/10 13:07:19;;;;;;;0.60;0.17;;;;;;;;;;4947177;28;20487;-85
2024/01/10 13:09:48;;;;;;;0.20;0.10;;;;;;;;;;4949743;28;20046;-85
2024/01/10 13:12:14;;;;;;;0.20;0.10;;;;;;;;;;4934336;28;20106;-85
2024/01/10 13:14:46;;;;;;;0.20;0.10;;;;;;;;;;4948747;28;20050;-88
2024/01/10 13:17:12;;;;;;;0.20;0.10;;;;;;;;;;4938008;28;20100;-89
2024/01/10 13:19:45;;;;;;;0.20;0.10;;;;;;;;;;4932609;28;20042;-87
2024/01/10 13:22:38;;;;;;;0.20;0.10;;;;;;;;;;4946115;28;20078;-86
2024/01/10 13:25:38;;;;;;;0.20;0.10;;;;;;;;;;4962967;28;20053;-88
2024/01/10 13:28:07;;;;;;;0.20;0.10;;;;;;;;;;4943620;28;20110;-84
2024/01/10 13:30:33;;;;;;;0.20;0.10;;;;;;;;;;4948551;28;20038;-85
2024/01/10 13:33:04;;;;;;;0.20;0.10;;;;;;;;;;4949664;28;20522;-86
2024/01/10 13:35:51;;;;;;;0.20;0.10;;;;;;;;;;4949256;28;20508;-85
2024/01/10 13:38:26;;;;;;;0.20;0.20;;;;;;;;;;4950908;28;20093;-84
2024/01/10 13:41:08;;;;;;;0.20;0.10;;;;;;;;;;4948579;28;20074;-85
2024/01/10 13:43:34;;;;;;;;;;;;;;;;;;4951339;28;20074;-86
2024/01/10 13:46:01;;;;;;;0.20;0.10;;;;;;;;;;4951536;28;19972;-84
2024/01/10 13:48:40;;;;;;;0.20;0.00;;;;;;;;;;4938832;28;20492;-87
2024/01/10 13:51:10;;;;;;;0.20;0.10;;;;;;;;;;4944458;28;20047;-85
2024/01/10 13:53:45;;;;;;;0.20;0.10;;;;;;;;;;4932830;28;20550;-84
2024/01/10 13:56:12;;;;;;;1.52;0.52;;;;;;;;;;4953101;28;20065;-84
2024/01/10 13:58:52;;;;;;;0.20;0.10;;;;;;;;;;4938913;28;20078;-86
2024/01/10 14:01:18;;;;;;;0.20;0.10;;;;;;;;;;4953634;28;20388;-86
2024/01/10 14:04:06;;;;;;;0.20;0.10;;;;;;;;;;4934426;28;20038;-87
2024/01/10 14:06:32;;;;;;;0.20;0.10;;;;;;;;;;4952638;28;20046;-84
2024/01/10 14:08:58;;;;;;;0.20;0.10;;;;;;;;;;4935267;28;20042;-85
2024/01/10 14:11:33;;;;;;;0.20;0.10;;;;;;;;;;4936269;28;20038;-85
2024/01/10 14:14:16;;;;;;;0.20;0.10;;;;;;;;;;4938479;28;20137;-85
2024/01/10 14:16:50;;;;;;;0.20;0.10;;;;;;;;;;4952608;28;20039;-83
2024/01/10 14:19:19;;;;;;;0.20;0.10;;;;;;;;;;4952802;28;20054;-83
2024/01/10 14:22:14;;;;;;;0.20;0.10;;;;;;;;;;4936512;28;20042;-87
2024/01/10 14:24:50;;;;;;;0.20;0.10;;;;;;;;;;4952929;28;20849;-86
2024/01/10 14:27:22;;;;;;;0.20;0.10;;;;;;;;;;4953769;28;20114;-86
2024/01/10 14:30:03;;;;;;;0.20;0.10;;;;;;;;;;4938080;28;20039;-87
2024/01/10 14:32:41;;;;;;;0.20;0.10;;;;;;;;;;4954280;28;20483;-87
2024/01/10 14:35:36;;;;;;;;;;;;;;;;;;;;;
2024/01/10 14:38:24;;;;;;;0.20;0.10;;;;;;;;;;4953849;28;20046;-86
2024/01/10 14:41:02;;;;;;;0.20;0.10;;;;;;;;;;4966920;28;20051;-84
2024/01/10 14:43:38;;;;;;;0.20;0.10;;;;;;;;;;4937130;28;20043;-86
2024/01/10 14:46:16;;;;;;;0.20;0.10;;;;;;;;;;4948216;28;20046;-84
2024/01/10 14:48:42;;;;;;;0.20;0.10;;;;;;;;;;4954703;28;20565;-84
2024/01/10 14:51:39;;;;;;;0.20;0.10;;;;;;;;;;4934038;28;20055;-84
2024/01/10 14:54:05;;;;;;;0.20;0.10;;;;;;;;;;4891618;29;20054;-86
2024/01/10 14:56:43;;;;;;;0.20;0.10;;;;;;;;;;4883836;29;20056;-89
2024/01/10 14:59:36;;;;;;;0.20;0.10;;;;;;;;;;4930949;28;20130;-87
2024/01/10 15:11:29;;;;;;;0.20;0.10;;;;;;;;;;4819509;29;20045;-87
2024/01/10 15:14:22;;;;;;;0.20;0.10;;;;;;;;;;4809638;29;20144;-87
2024/01/10 15:16:48;;;;;;;0.20;0.10;;;;;;;;;;4794980;29;20076;-86
2024/01/10 15:19:34;;;;;;;0.20;0.15;;;;;;;;;;4883685;29;20059;-85
2024/01/10 15:27:12;;;;;;;0.20;0.10;;;;;;;;;;2389784;23;20321;-85
2024/01/10 15:30:00;;;;;;;0.20;0.10;;;;;;;;;;4954931;28;20055;-86
2024/01/10 15:32:30;;;;;;;0.20;0.10;;;;;;;;;;4941933;28;20056;-88
2024/01/10 15:35:04;;;;;;;0.20;0.10;;;;;;;;;;4932527;29;20534;-87
2024/01/10 15:37:39;;;;;;;0.20;0.10;;;;;;;;;;4949579;28;20050;-85
2024/01/10 15:40:18;;;;;;;0.20;0.20;;;;;;;;;;4964412;28;20129;-87
2024/01/10 15:42:59;;;;;;;0.20;0.10;;;;;;;;;;4933872;28;20065;-85
2024/01/10 15:45:28;;;;;;;0.28;0.22;;;;;;;;;;4946794;28;20157;-86
2024/01/10 15:48:00;;;;;;;0.20;0.10;;;;;;;;;;4934674;28;20070;-87
2024/01/10 15:50:27;;;;;;;0.20;0.10;;;;;;;;;;4932517;28;20043;-87
2024/01/10 15:52:57;;;;;;;0.20;0.10;;;;;;;;;;4936223;28;20093;-85
2024/01/10 15:55:27;;;;;;;0.20;0.10;;;;;;;;;;4935879;28;20057;-87
2024/01/10 15:57:53;;;;;;;0.20;0.10;;;;;;;;;;4932636;28;20118;-87
2024/01/10 16:00:19;;;;;;;0.20;0.10;;;;;;;;;;4935914;28;20062;-86
2024/01/10 16:02:48;;;;;;;0.20;0.10;;;;;;;;;;4936633;28;20038;-85
2024/01/10 16:05:16;;;;;;;0.20;0.10;;;;;;;;;;4945055;28;20035;-86
2024/01/10 16:07:49;;;;;;;0.20;0.10;;;;;;;;;;4931479;28;20046;-85
2024/01/10 16:10:18;;;;;;;0.30;0.20;;;;;;;;;;4935371;28;20054;-85
2024/01/10 16:12:57;;;;;;;0.20;0.10;;;;;;;;;;4935775;28;20503;-85
2024/01/10 16:15:37;;;;;;;0.63;0.47;;;;;;;;;;4933997;28;20086;-87
2024/01/10 16:18:04;;;;;;;0.20;0.10;;;;;;;;;;4948617;28;20109;-85
2024/01/10 16:20:38;;;;;;;0.30;0.22;;;;;;;;;;4949610;28;20590;-87
2024/01/10 16:23:07;;;;;;;0.20;0.10;;;;;;;;;;4934703;28;20130;-86
2024/01/10 16:25:38;;;;;;;0.20;0.10;;;;;;;;;;4934684;28;20046;-86
2024/01/10 16:28:05;;;;;;;0.20;0.10;;;;;;;;;;4930271;29;20050;-86
2024/01/10 16:30:31;;;;;;;0.20;0.10;;;;;;;;;;4934347;28;20051;-86
2024/01/10 16:33:00;;;;;;;0.20;0.10;;;;;;;;;;4927983;28;20034;-86
2024/01/10 16:35:28;;;;;;;0.20;0.10;;;;;;;;;;4930872;28;20476;-86
2024/01/10 16:37:54;;;;;;;0.20;0.10;;;;;;;;;;4933169;29;20035;-86
2024/01/10 16:40:20;;;;;;;0.20;0.10;;;;;;;;;;4940676;28;20610;-86
2024/01/10 16:42:49;;;;;;;0.20;0.10;;;;;;;;;;4928831;28;20511;-87
2024/01/10 16:45:17;;;;;;;0.20;0.20;;;;;;;;;;4946594;28;20050;-87